Aviation Digital Data Service (ADDS)

Output produced by TAFs form (1000 UTC 23 April 2017)
found at http://www.aviationweather.gov/adds/tafs/
 
METAR text: ROYN 230900Z AUTO 04011KT 9999 BKN037 BKN047 23/15 Q1014
Conditions at: ROYN (YONAGUNI AIRPORT, JP) observed 0900 UTC 23 April 2017
Temperature: 23.0°C (73°F)
Dewpoint: 15.0°C (59°F) [RH = 61%]
Pressure (altimeter): 29.94 inches Hg (1014.0 mb)
Winds: from the NE (40 degrees) at 13 MPH (11 knots; 5.7 m/s)
Visibility: 6 or more miles (10+ km)
Ceiling: 3700 feet AGL
Clouds: broken clouds at 3700 feet AGL
broken clouds at 4700 feet AGL
Weather: no significant weather observed at this time